Terminal Aerodrome Forecast
Issued by NWS Riverton, WY

Home | Current Version | Previous Version | Text Only | Print | Product List | Glossary On
Versions: 1 2 3 4 5 6 7 8 9 10 11 12 13 14 15
000
FTUS45 KRIW 301720
TAFRIW
TAF
KRIW 301720Z 3018/3118 24013G21KT P6SM SCT110 BKN200
     FM302100 25015G25KT P6SM VCTS SCT100CB BKN200
     FM310200 30020G28KT P6SM FEW110
     FM310900 31011KT P6SM SKC=

USA.gov is the U.S. government's official web portal to all federal, state and local government web resources and services.